createdAt,value
2022-08-14T00:01:11.449Z,77.96
2022-08-14T00:03:42.505Z,78.34
2022-08-14T00:06:25.687Z,78.55
2022-08-14T00:09:01.112Z,77.90
2022-08-14T00:11:32.190Z,78.51
2022-08-14T00:14:10.301Z,78.59
2022-08-14T00:16:45.652Z,79.00
2022-08-14T00:19:19.672Z,79.73
2022-08-14T00:21:52.188Z,78.18
2022-08-14T00:24:30.967Z,77.43
2022-08-14T00:27:02.863Z,76.48
2022-08-14T00:29:33.127Z,76.54
2022-08-14T00:32:52.981Z,76.95
2022-08-14T00:35:25.894Z,76.88
2022-08-14T00:38:16.764Z,76.46
2022-08-14T00:40:46.166Z,76.79
2022-08-14T00:43:15.631Z,77.59
2022-08-14T00:45:52.533Z,78.32
2022-08-14T00:48:34.378Z,78.56
2022-08-14T00:51:09.210Z,78.02
2022-08-14T00:53:45.271Z,76.98
2022-08-14T00:56:15.586Z,76.70
2022-08-14T00:58:54.571Z,75.83
2022-08-14T01:01:25.657Z,75.90
2022-08-14T01:03:55.262Z,75.66
2022-08-14T01:06:30.238Z,75.67
2022-08-14T01:09:04.181Z,76.13
2022-08-14T01:11:36.033Z,75.83
2022-08-14T01:14:25.753Z,76.76
2022-08-14T01:17:05.135Z,77.42
2022-08-14T01:19:58.971Z,76.51
2022-08-14T01:22:29.485Z,76.77
2022-08-14T01:25:01.595Z,76.46
2022-08-14T01:27:31.853Z,78.02
2022-08-14T01:30:30.065Z,77.25
2022-08-14T01:32:59.871Z,76.57
2022-08-14T01:36:03.310Z,76.36
2022-08-14T01:38:24.941Z,76.97
2022-08-14T01:40:56.947Z,77.17
2022-08-14T01:43:31.332Z,76.63
2022-08-14T01:46:11.370Z,76.88
2022-08-14T01:48:56.561Z,77.24
2022-08-14T01:51:30.341Z,76.45
2022-08-14T01:54:10.385Z,76.41
2022-08-14T01:56:44.903Z,76.06
2022-08-14T01:59:38.060Z,77.35
2022-08-14T02:02:19.948Z,77.52
2022-08-14T02:04:55.469Z,76.91
2022-08-14T02:07:44.931Z,76.81
2022-08-14T02:10:26.239Z,77.89
2022-08-14T02:12:59.412Z,78.32
2022-08-14T02:15:30.338Z,78.08
2022-08-14T02:18:04.572Z,77.78
2022-08-14T02:20:36.717Z,76.94
2022-08-14T02:23:04.839Z,76.51
2022-08-14T02:25:34.941Z,77.01
2022-08-14T02:28:23.040Z,76.52
2022-08-14T02:31:03.451Z,76.24
2022-08-14T02:33:39.168Z,75.90
2022-08-14T02:37:04.088Z,75.92
2022-08-14T02:39:01.930Z,75.73
2022-08-14T02:41:39.988Z,76.35
2022-08-14T02:44:16.170Z,76.80
2022-08-14T02:47:02.319Z,77.36
2022-08-14T02:49:34.232Z,76.48
2022-08-14T02:52:55.844Z,77.81
2022-08-14T02:55:05.081Z,78.24
2022-08-14T02:57:40.228Z,77.63
2022-08-14T03:00:17.910Z,77.05
2022-08-14T03:02:59.862Z,77.98
2022-08-14T03:05:36.121Z,78.15
2022-08-14T03:08:16.015Z,77.31
2022-08-14T03:10:55.371Z,76.75
2022-08-14T03:13:29.623Z,76.28
2022-08-14T03:16:01.384Z,76.56
2022-08-14T03:18:44.038Z,77.43
2022-08-14T03:21:15.466Z,77.49
2022-08-14T03:23:48.598Z,78.27
2022-08-14T03:26:29.835Z,77.01
2022-08-14T03:29:01.060Z,76.48
2022-08-14T03:31:31.692Z,76.09
2022-08-14T03:34:00.479Z,77.02
2022-08-14T03:37:39.284Z,77.14
2022-08-14T03:39:32.080Z,77.90
2022-08-14T03:42:19.399Z,77.41
2022-08-14T03:45:27.517Z,78.10
2022-08-14T03:47:46.571Z,76.93
2022-08-14T03:50:30.775Z,75.76
2022-08-14T03:53:06.009Z,76.86
2022-08-14T03:55:44.940Z,77.45
2022-08-14T03:58:23.746Z,77.92
2022-08-14T04:01:13.192Z,76.97
2022-08-14T04:03:44.257Z,76.66
2022-08-14T04:06:22.273Z,76.92
2022-08-14T04:08:59.290Z,76.43
2022-08-14T04:11:29.711Z,76.29
2022-08-14T04:13:57.055Z,77.32
2022-08-14T04:16:35.784Z,76.97
2022-08-14T04:19:05.028Z,77.08
2022-08-14T04:21:39.953Z,78.44
2022-08-14T04:24:26.803Z,78.42
2022-08-14T04:27:07.458Z,77.59
2022-08-14T04:29:45.958Z,77.31
2022-08-14T04:33:00.365Z,77.51
2022-08-14T04:35:07.798Z,77.88
2022-08-14T04:38:00.067Z,78.82
2022-08-14T04:40:47.770Z,79.21
2022-08-14T04:43:39.621Z,79.43
2022-08-14T04:46:55.287Z,79.40
2022-08-14T04:49:15.635Z,79.27
2022-08-14T04:51:46.787Z,78.74
2022-08-14T04:54:30.945Z,79.05
2022-08-14T04:57:01.451Z,79.38
2022-08-14T04:59:30.019Z,79.56
2022-08-14T05:01:59.122Z,79.56
2022-08-14T05:04:27.549Z,79.45
2022-08-14T05:06:56.143Z,79.17
2022-08-14T05:09:29.279Z,79.04
2022-08-14T05:13:11.831Z,78.73
2022-08-14T05:14:53.495Z,79.01
2022-08-14T05:17:44.002Z,78.86
2022-08-14T05:21:04.253Z,78.81
2022-08-14T05:23:05.239Z,79.19
2022-08-14T05:25:35.975Z,79.29
2022-08-14T05:28:17.746Z,80.66
2022-08-14T05:31:05.514Z,80.94
2022-08-14T05:33:36.410Z,82.75
2022-08-14T05:36:16.622Z,82.20
2022-08-14T05:38:47.532Z,82.00
2022-08-14T05:41:21.784Z,81.87
2022-08-14T05:43:51.732Z,81.62
2022-08-14T05:46:28.444Z,81.35
2022-08-14T05:49:09.150Z,81.89
2022-08-14T05:51:39.642Z,81.45
2022-08-14T05:54:12.640Z,80.51
2022-08-14T05:56:42.183Z,78.81
2022-08-14T05:59:14.909Z,78.56
2022-08-14T06:01:46.677Z,78.24
2022-08-14T06:04:16.370Z,77.85
2022-08-14T06:06:44.106Z,77.30
2022-08-14T06:09:12.642Z,76.39
2022-08-14T06:11:42.575Z,74.07
2022-08-14T06:14:21.506Z,73.81
2022-08-14T06:16:53.529Z,74.75
2022-08-14T06:19:24.317Z,71.92
2022-08-14T06:21:58.316Z,71.66
2022-08-14T06:24:37.879Z,70.84
2022-08-14T06:27:13.218Z,72.23
2022-08-14T06:29:47.226Z,71.95
2022-08-14T06:32:37.741Z,69.62
2022-08-14T06:35:13.341Z,69.41
2022-08-14T06:37:59.720Z,67.84
2022-08-14T06:40:46.804Z,67.52
2022-08-14T06:43:15.739Z,65.27
2022-08-14T06:45:48.347Z,66.18
2022-08-14T06:48:32.760Z,66.13
2022-08-14T06:51:05.289Z,66.50
2022-08-14T06:53:46.410Z,66.99
2022-08-14T06:56:17.211Z,68.35
2022-08-14T06:58:46.183Z,65.90
2022-08-14T07:01:35.141Z,66.14
2022-08-14T07:04:26.019Z,67.45
2022-08-14T07:07:04.571Z,67.42
2022-08-14T07:09:43.487Z,66.76
2022-08-14T07:12:54.827Z,67.14
2022-08-14T07:15:11.685Z,63.97
2022-08-14T07:17:58.535Z,65.88
2022-08-14T07:20:39.397Z,65.67
2022-08-14T07:23:20.790Z,63.67
2022-08-14T07:25:51.892Z,60.39
2022-08-14T07:28:43.640Z,60.04
2022-08-14T07:31:13.064Z,60.50
2022-08-14T07:33:50.780Z,62.32
2022-08-14T07:36:27.862Z,59.82
2022-08-14T07:39:13.210Z,59.44
2022-08-14T07:41:42.518Z,57.46
2022-08-14T07:44:33.085Z,57.26
2022-08-14T07:47:10.495Z,57.98
2022-08-14T07:49:40.151Z,55.69
2022-08-14T07:52:10.940Z,55.80
2022-08-14T07:54:42.940Z,56.00
2022-08-14T07:57:22.346Z,55.75
2022-08-14T08:00:02.641Z,55.17
2022-08-14T08:02:55.134Z,55.67
2022-08-14T08:05:29.085Z,53.87
2022-08-14T08:08:01.089Z,53.84
2022-08-14T08:10:46.837Z,54.24
2022-08-14T08:13:24.644Z,52.23
2022-08-14T08:16:02.038Z,50.62
2022-08-14T08:18:36.890Z,49.76
2022-08-14T08:21:09.698Z,50.65
2022-08-14T08:23:51.296Z,50.88
2022-08-14T08:26:22.020Z,49.38
2022-08-14T08:29:01.735Z,51.52
2022-08-14T08:31:39.867Z,48.87
2022-08-14T08:34:14.313Z,48.90
2022-08-14T08:36:47.461Z,48.41
2022-08-14T08:39:22.219Z,49.22
2022-08-14T08:42:00.652Z,49.80
2022-08-14T08:44:34.477Z,46.88
2022-08-14T08:47:23.911Z,46.59
2022-08-14T08:49:59.539Z,47.86
2022-08-14T08:52:37.149Z,47.22
2022-08-14T08:55:05.215Z,48.60
2022-08-14T08:57:46.143Z,44.74
2022-08-14T09:00:25.114Z,43.55
2022-08-14T09:03:10.610Z,43.25
2022-08-14T09:06:59.930Z,44.92
2022-08-14T09:08:57.115Z,42.26
2022-08-14T09:11:27.083Z,43.09
2022-08-14T09:13:55.559Z,43.23
2022-08-14T09:16:27.971Z,41.60
2022-08-14T09:19:06.169Z,43.86
2022-08-14T09:21:35.184Z,43.66
2022-08-14T09:24:29.382Z,39.62
2022-08-14T09:26:56.958Z,39.24
2022-08-14T09:29:34.420Z,38.59
2022-08-14T09:32:57.833Z,37.58
2022-08-14T09:36:02.259Z,36.87
2022-08-14T09:38:53.738Z,37.96
2022-08-14T09:42:21.827Z,36.48
2022-08-14T09:45:24.098Z,36.98
2022-08-14T09:47:58.261Z,37.90
2022-08-14T09:50:47.935Z,37.30
2022-08-14T09:54:18.257Z,36.50
2022-08-14T09:56:59.609Z,36.04
2022-08-14T09:59:33.662Z,35.07
2022-08-14T10:02:08.530Z,33.70
2022-08-14T10:04:50.019Z,28.86
2022-08-14T10:07:32.653Z,30.03
2022-08-14T10:10:03.541Z,28.21
2022-08-14T10:12:55.031Z,29.96
2022-08-14T10:15:30.753Z,29.37
2022-08-14T10:18:17.225Z,30.92
2022-08-14T10:21:00.337Z,32.38
2022-08-14T10:23:42.247Z,33.42
2022-08-14T10:26:22.757Z,31.46
2022-08-14T10:29:20.145Z,32.24
2022-08-14T10:32:00.270Z,31.79
2022-08-14T10:34:40.962Z,31.10
2022-08-14T10:37:14.549Z,33.28
2022-08-14T10:40:01.207Z,30.56
2022-08-14T10:42:43.986Z,29.35
2022-08-14T10:45:35.544Z,30.95
2022-08-14T10:48:24.431Z,28.26
2022-08-14T10:51:09.201Z,27.90
2022-08-14T10:53:40.431Z,29.96
2022-08-14T10:56:21.696Z,27.54
2022-08-14T10:59:10.953Z,31.35
2022-08-14T11:01:41.556Z,28.45
2022-08-14T11:04:32.000Z,27.64
2022-08-14T11:07:02.974Z,27.12
2022-08-14T11:09:36.760Z,24.82
2022-08-14T11:12:34.616Z,25.73
2022-08-14T11:15:03.051Z,28.22
2022-08-14T11:17:36.447Z,28.05
2022-08-14T11:20:16.056Z,28.38
2022-08-14T11:22:52.376Z,26.46
2022-08-14T11:25:43.939Z,24.57
2022-08-14T11:28:19.149Z,24.33
2022-08-14T11:30:53.788Z,27.10
2022-08-14T11:33:30.036Z,26.22
2022-08-14T11:36:01.731Z,27.36
2022-08-14T11:38:47.533Z,25.03
2022-08-14T11:41:19.381Z,25.75
2022-08-14T11:43:58.817Z,26.24
2022-08-14T11:46:30.505Z,27.55
2022-08-14T11:49:08.653Z,28.33
2022-08-14T11:51:53.576Z,25.43
2022-08-14T11:54:34.445Z,25.08
2022-08-14T11:57:06.101Z,26.95
2022-08-14T11:59:38.519Z,27.54
2022-08-14T12:03:00.782Z,26.67
2022-08-14T12:05:09.140Z,27.78
2022-08-14T12:07:48.213Z,24.74
2022-08-14T12:10:26.831Z,25.42
2022-08-14T12:13:14.424Z,24.21
2022-08-14T12:16:06.503Z,26.31
2022-08-14T12:18:51.107Z,25.59
2022-08-14T12:21:29.567Z,28.00
2022-08-14T12:24:35.926Z,26.59
2022-08-14T12:26:58.954Z,23.40
2022-08-14T12:29:26.490Z,23.82
2022-08-14T12:32:34.730Z,23.44
2022-08-14T12:35:03.034Z,24.62
2022-08-14T12:37:40.070Z,27.20
2022-08-14T12:40:21.193Z,24.47
2022-08-14T12:42:53.722Z,24.43
2022-08-14T12:45:36.290Z,24.03
2022-08-14T12:48:21.653Z,24.41
2022-08-14T12:50:55.716Z,26.09
2022-08-14T12:53:39.313Z,23.83
2022-08-14T12:56:22.389Z,23.87
2022-08-14T12:59:01.367Z,23.90
2022-08-14T13:02:00.361Z,24.00
2022-08-14T13:04:35.474Z,25.27
2022-08-14T13:07:12.115Z,23.57
2022-08-14T13:09:42.205Z,25.00
2022-08-14T13:12:31.914Z,25.92
2022-08-14T13:15:02.295Z,24.70
2022-08-14T13:17:51.004Z,25.47
2022-08-14T13:20:30.694Z,25.11
2022-08-14T13:23:04.384Z,25.33
2022-08-14T13:25:41.715Z,26.10
2022-08-14T13:29:02.141Z,25.58
2022-08-14T13:31:34.226Z,25.91
2022-08-14T13:34:05.084Z,24.12
2022-08-14T13:36:54.873Z,27.62
2022-08-14T13:39:35.957Z,23.95
2022-08-14T13:42:13.498Z,23.50
2022-08-14T13:44:46.357Z,23.69
2022-08-14T13:47:18.189Z,23.64
2022-08-14T13:49:57.949Z,24.28
2022-08-14T13:52:52.135Z,26.14
2022-08-14T13:55:25.634Z,24.89
2022-08-14T13:58:06.256Z,24.44
2022-08-14T14:00:52.842Z,25.44
2022-08-14T14:03:30.400Z,26.42
2022-08-14T14:06:03.566Z,25.68
2022-08-14T14:08:47.886Z,26.37
2022-08-14T14:11:29.936Z,26.41
2022-08-14T14:14:09.977Z,25.73
2022-08-14T14:16:59.814Z,24.88
2022-08-14T14:19:38.116Z,26.10
2022-08-14T14:22:35.451Z,26.46
2022-08-14T14:25:04.472Z,25.96
2022-08-14T14:27:40.995Z,26.50
2022-08-14T14:30:31.951Z,26.52
2022-08-14T14:33:06.658Z,26.91
2022-08-14T14:35:46.829Z,26.04
2022-08-14T14:38:18.522Z,25.30
2022-08-14T14:41:00.970Z,25.28
2022-08-14T14:43:41.303Z,25.82
2022-08-14T14:46:16.588Z,26.63
2022-08-14T14:48:54.168Z,25.41
2022-08-14T14:51:26.836Z,26.29
2022-08-14T14:53:57.914Z,25.82
2022-08-14T14:56:51.645Z,26.06
2022-08-14T14:59:17.695Z,26.74
2022-08-14T15:01:52.737Z,25.96
2022-08-14T15:04:22.036Z,25.25
2022-08-14T15:06:53.050Z,26.09
2022-08-14T15:09:21.085Z,26.11
2022-08-14T15:11:53.872Z,25.58
2022-08-14T15:14:55.197Z,26.47
2022-08-14T15:17:16.122Z,26.54
2022-08-14T15:19:56.373Z,25.11
2022-08-14T15:22:29.963Z,24.62
2022-08-14T15:24:58.721Z,25.99
2022-08-14T15:27:32.914Z,25.78
2022-08-14T15:30:08.874Z,26.10
2022-08-14T15:32:46.009Z,25.92
2022-08-14T15:35:18.515Z,26.33
2022-08-14T15:37:55.967Z,26.74
2022-08-14T15:40:26.569Z,27.39
2022-08-14T15:42:56.857Z,27.61
2022-08-14T15:45:27.403Z,29.24
2022-08-14T15:47:58.325Z,29.70
2022-08-14T15:50:26.355Z,28.91
2022-08-14T15:52:58.585Z,28.47
2022-08-14T15:55:29.680Z,27.91
2022-08-14T15:58:03.119Z,27.54
2022-08-14T16:00:58.041Z,27.06
2022-08-14T16:03:35.728Z,27.52
2022-08-14T16:06:15.423Z,26.23
2022-08-14T16:08:58.850Z,26.79
2022-08-14T16:11:33.182Z,26.69
2022-08-14T16:14:06.762Z,27.03
2022-08-14T16:16:49.841Z,27.01
2022-08-14T16:19:23.808Z,27.72
2022-08-14T16:22:01.660Z,27.68
2022-08-14T16:25:01.955Z,27.98
2022-08-14T16:27:40.965Z,27.89
2022-08-14T16:30:24.982Z,28.84
2022-08-14T16:33:06.996Z,28.55
2022-08-14T16:35:43.119Z,28.64
2022-08-14T16:38:47.908Z,29.02
2022-08-14T16:41:29.594Z,29.42
2022-08-14T16:44:23.173Z,29.14
2022-08-14T16:47:16.357Z,29.33
2022-08-14T16:50:04.562Z,29.99
2022-08-14T16:52:44.510Z,30.26
2022-08-14T16:55:14.302Z,30.22
2022-08-14T16:58:04.438Z,30.50
2022-08-14T17:00:45.175Z,30.44
2022-08-14T17:03:17.317Z,30.26
2022-08-14T17:05:46.942Z,30.76
2022-08-14T17:08:41.748Z,31.48
2022-08-14T17:11:21.074Z,31.89
2022-08-14T17:14:01.526Z,31.67
2022-08-14T17:16:38.182Z,31.47
2022-08-14T17:19:19.805Z,32.12
2022-08-14T17:21:57.718Z,32.54
2022-08-14T17:24:56.308Z,32.81
2022-08-14T17:27:19.563Z,32.76
2022-08-14T17:29:56.531Z,32.42
2022-08-14T17:32:44.417Z,32.85
2022-08-14T17:35:57.737Z,33.16
2022-08-14T17:38:33.610Z,33.09
2022-08-14T17:41:24.053Z,32.75
2022-08-14T17:44:34.497Z,32.49
2022-08-14T17:47:23.016Z,32.80
2022-08-14T17:49:52.316Z,32.57
2022-08-14T17:52:33.956Z,32.64
2022-08-14T17:55:09.218Z,32.79
2022-08-14T17:57:41.034Z,33.11
2022-08-14T18:00:15.755Z,33.06
2022-08-14T18:02:50.635Z,33.36
2022-08-14T18:05:23.046Z,33.40
2022-08-14T18:08:33.008Z,33.33
2022-08-14T18:10:55.061Z,33.73
2022-08-14T18:13:51.015Z,33.65
2022-08-14T18:16:31.115Z,33.76
2022-08-14T18:19:12.477Z,34.07
2022-08-14T18:21:56.770Z,34.27
2022-08-14T18:24:37.037Z,33.96
2022-08-14T18:27:22.840Z,33.99
2022-08-14T18:30:32.027Z,34.25
2022-08-14T18:32:56.054Z,34.42
2022-08-14T18:35:59.333Z,34.58
2022-08-14T18:38:55.198Z,34.44
2022-08-14T18:41:40.993Z,34.51
2022-08-14T18:44:10.731Z,34.69
2022-08-14T18:48:06.443Z,35.11
2022-08-14T18:50:36.287Z,35.17
2022-08-14T18:53:12.402Z,35.22
2022-08-14T18:55:54.467Z,35.65
2022-08-14T18:58:57.099Z,35.48
2022-08-14T19:01:30.407Z,35.35
2022-08-14T19:04:08.302Z,35.63
2022-08-14T19:06:40.913Z,35.89
2022-08-14T19:09:56.245Z,36.31
2022-08-14T19:13:13.088Z,36.64
2022-08-14T19:15:45.882Z,37.19
2022-08-14T19:18:38.516Z,37.48
2022-08-14T19:21:36.254Z,38.00
2022-08-14T19:24:45.250Z,38.58
2022-08-14T19:27:37.813Z,39.65
2022-08-14T19:30:23.433Z,40.38
2022-08-14T19:33:05.270Z,40.67
2022-08-14T19:36:00.770Z,41.54
2022-08-14T19:39:04.170Z,41.09
2022-08-14T19:41:35.879Z,41.54
2022-08-14T19:44:31.655Z,42.44
2022-08-14T19:47:04.925Z,41.26
2022-08-14T19:50:08.189Z,42.03
2022-08-14T19:52:39.612Z,42.39
2022-08-14T19:55:19.009Z,43.00
2022-08-14T19:57:52.391Z,43.06
2022-08-14T20:00:51.735Z,43.11
2022-08-14T20:03:27.082Z,43.70
2022-08-14T20:06:18.148Z,44.19
2022-08-14T20:10:59.459Z,44.76
2022-08-14T20:12:01.731Z,45.04
2022-08-14T20:14:39.480Z,45.37
2022-08-14T20:17:25.716Z,45.55
2022-08-14T20:19:56.188Z,46.48
2022-08-14T20:22:38.613Z,46.04
2022-08-14T20:25:19.905Z,46.17
2022-08-14T20:27:59.249Z,46.98
2022-08-14T20:30:33.712Z,46.62
2022-08-14T20:33:11.339Z,47.70
2022-08-14T20:35:49.471Z,47.57
2022-08-14T20:38:29.742Z,47.40
2022-08-14T20:41:09.765Z,47.75
2022-08-14T20:44:06.444Z,47.94
2022-08-14T20:46:39.501Z,48.48
2022-08-14T20:49:19.453Z,48.55
2022-08-14T20:52:05.015Z,49.57
2022-08-14T20:54:51.671Z,49.28
2022-08-14T20:57:23.476Z,49.49
2022-08-14T20:59:59.104Z,49.80
2022-08-14T21:02:55.335Z,50.29
2022-08-14T21:05:33.463Z,50.79
2022-08-14T21:08:08.315Z,51.45
2022-08-14T21:10:44.157Z,51.08
2022-08-14T21:14:09.204Z,51.28
2022-08-14T21:16:35.062Z,51.97
2022-08-14T21:19:05.768Z,52.69
2022-08-14T21:21:42.408Z,52.45
2022-08-14T21:24:38.416Z,52.68
2022-08-14T21:27:12.970Z,53.04
2022-08-14T21:30:00.368Z,53.41
2022-08-14T21:32:50.627Z,53.22
2022-08-14T21:35:30.371Z,53.45
2022-08-14T21:37:59.735Z,53.35
2022-08-14T21:40:42.286Z,53.31
2022-08-14T21:43:19.500Z,53.45
2022-08-14T21:45:54.358Z,53.95
2022-08-14T21:48:30.638Z,54.51
2022-08-14T21:51:54.720Z,54.54
2022-08-14T21:53:59.498Z,54.73
2022-08-14T21:56:56.760Z,54.88
2022-08-14T21:59:32.676Z,55.22
2022-08-14T22:02:05.076Z,55.39
2022-08-14T22:04:39.946Z,55.73
2022-08-14T22:07:18.210Z,55.71
2022-08-14T22:09:55.016Z,56.10
2022-08-14T22:12:57.338Z,56.18
2022-08-14T22:15:24.643Z,56.12
2022-08-14T22:18:02.163Z,56.65
2022-08-14T22:20:33.382Z,56.98
2022-08-14T22:23:08.769Z,56.64
2022-08-14T22:25:49.478Z,56.65
2022-08-14T22:28:27.348Z,56.97
2022-08-14T22:31:09.890Z,57.02
2022-08-14T22:33:43.006Z,57.67
2022-08-14T22:36:42.414Z,57.07
2022-08-14T22:40:17.553Z,57.36
2022-08-14T22:42:21.224Z,57.39
2022-08-14T22:44:56.568Z,57.79
2022-08-14T22:47:40.355Z,58.12
2022-08-14T22:50:28.931Z,58.29
2022-08-14T22:53:04.285Z,59.37
2022-08-14T22:55:36.453Z,58.63
2022-08-14T22:58:05.150Z,58.64
2022-08-14T23:00:43.078Z,58.67
2022-08-14T23:03:17.393Z,58.49
2022-08-14T23:05:53.040Z,58.63
2022-08-14T23:09:00.091Z,59.56
2022-08-14T23:11:13.508Z,59.83
2022-08-14T23:13:46.070Z,60.14
2022-08-14T23:16:20.405Z,59.78
2022-08-14T23:18:55.759Z,59.83
2022-08-14T23:21:28.916Z,59.84
2022-08-14T23:23:58.690Z,60.49
2022-08-14T23:26:49.271Z,60.80
2022-08-14T23:29:22.745Z,61.05
2022-08-14T23:31:52.768Z,60.18
2022-08-14T23:34:24.195Z,60.88
2022-08-14T23:36:56.835Z,60.03
2022-08-14T23:39:36.082Z,60.60
2022-08-14T23:42:11.621Z,61.28
2022-08-14T23:44:45.746Z,61.30
2022-08-14T23:47:26.084Z,61.89
2022-08-14T23:50:03.295Z,62.42
2022-08-14T23:52:50.707Z,62.66
2022-08-14T23:55:35.095Z,62.83
2022-08-14T23:58:05.514Z,62.45
